Terminal Aerodrome Forecast
Issued by NWS

Home | Current Version | Previous Version | Graphics & Text | Print | Product List | Glossary On
Versions: 1 2 3 4 5 6 7 8 9 10 11 12 13 14 15 16 17 18 19 20 21 22 23 24 25 26 27 28 29
198
FTUS43 KGRB 251740
TAFRHI
TAF
KRHI 251740Z 2518/2618 17010G16KT P6SM BKN120
     FM252200 15009KT P6SM VCSH SCT040 OVC080
      TEMPO 2522/2601 5SM -SHRA BKN040
     FM260300 10005KT 6SM -SHRA BR OVC025 WS015/15030KT
      TEMPO 2603/2607 4SM -SHRA OVC018
     FM260700 09007KT 5SM RA BR OVC015 WS020/16040KT
     FM261300 08007KT 3SM RA BR OVC009 WS020/22035KT=

USA.gov is the U.S. government's official web portal to all federal, state and local government web resources and services.